Date,TemperatureHighF,TemperatureAvgF,TemperatureLowF,DewpointHighF,DewpointAvgF,DewpointLowF,HumidityHigh,HumidityAvg,HumidityLow,PressureMaxIn,PressureMinIn,WindSpeedMaxMPH,WindSpeedAvgMPH,GustSpeedMaxMPH,PrecipitationSumIn
2012-12-1,78,70,63,65,62,60,90,79,60,30.07,29.94,18,6,20,0.00
2012-12-2,79,71,67,66,63,60,87,76,56,30.11,30.00,19,6,19,0.00
2012-12-3,78,70,66,65,62,59,89,77,57,30.02,29.89,21,5,21,0.00
2012-12-4,75,67,56,65,56,36,90,70,40,30.21,29.97,13,5,15,0.00
2012-12-5,56,53,52,44,43,36,71,69,48,30.24,30.03,9,1,12,0.00
2012-12-6,67,58,53,56,50,44,93,76,62,30.03,29.80,13,4,15,0.00
2012-12-7,70,61,56,61,57,53,96,88,72,29.86,29.76,13,3,15,0.00
2012-12-8,67,61,56,63,57,51,95,85,75,29.89,29.77,10,1,10,0.00
2012-12-9,70,64,46,66,59,31,93,84,55,29.96,29.73,17,6,20,0.00
2012-12-10,46,39,32,31,24,19,74,54,41,30.13,29.94,21,6,24,0.00
2012-12-11,50,38,28,31,25,19,85,59,33,30.24,30.10,9,1,10,0.00
2012-12-12,56,41,24,32,25,20,91,58,26,30.34,30.22,9,1,9,0.00
2012-12-13,62,47,32,39,30,22,83,53,26,30.33,30.18,11,2,12,0.00
2012-12-14,60,52,42,56,41,30,92,66,47,30.19,29.85,19,5,19,0.00
2012-12-15,72,63,54,60,50,39,96,67,32,29.89,29.79,14,2,16,0.56
2012-12-16,70,58,51,52,49,42,92,72,37,29.81,29.66,9,1,9,0.00
2012-12-17,62,50,41,49,42,37,92,75,44,29.88,29.70,11,1,11,0.00
2012-12-18,78,59,41,52,41,36,92,58,24,29.85,29.74,13,2,14,0.00
2012-12-19,77,69,58,66,61,52,89,76,63,29.76,29.53,26,10,31,0.21
2012-12-20,53,44,35,31,21,14,65,43,21,30.39,29.90,20,5,35,0.00
2012-12-21,64,45,29,35,22,14,68,44,17,30.47,30.29,7,0,8,0.00
2012-12-22,66,53,37,49,35,20,72,52,31,30.30,30.02,14,3,20,0.00
2012-12-23,69,60,45,59,49,31,83,68,48,30.01,29.78,15,4,17,0.00
2012-12-24,54,45,32,40,34,28,87,67,48,30.01,29.79,13,1,15,0.00
2012-12-25,53,42,30,48,38,27,94,88,68,30.06,29.54,25,6,25,2.00
2012-12-26,33,29,23,27,24,20,91,83,75,30.26,30.07,14,3,17,0.22
2012-12-27,42,34,25,41,32,22,95,92,89,30.15,29.90,12,3,13,0.12
2012-12-28,42,39,30,41,36,26,95,89,78,30.19,29.85,16,4,18,0.25
2012-12-29,45,33,25,29,24,21,89,70,43,30.46,30.19,13,2,15,0.00
2012-12-30,47,38,26,32,27,23,93,67,41,30.49,30.25,12,2,12,0.00
2012-12-31,50,45,42,49,41,31,96,86,63,30.25,29.96,12,2,14,0.65